sensor_id;sensor_type;location;lat;lon;timestamp;P1;durP1;ratioP1;P2;durP2;ratioP2
76935;SDS011;65881;52.438;16.744;2023-04-06T00:01:08;25.10;;;11.68;;
76935;SDS011;65881;52.438;16.744;2023-04-06T00:03:40;21.55;;;12.63;;
76935;SDS011;65881;52.438;16.744;2023-04-06T00:06:09;23.38;;;12.73;;
76935;SDS011;65881;52.438;16.744;2023-04-06T00:08:35;26.40;;;15.82;;
76935;SDS011;65881;52.438;16.744;2023-04-06T00:11:03;25.40;;;15.15;;
76935;SDS011;65881;52.438;16.744;2023-04-06T00:13:28;25.30;;;14.73;;
76935;SDS011;65881;52.438;16.744;2023-04-06T00:15:54;23.33;;;13.40;;
76935;SDS011;65881;52.438;16.744;2023-04-06T00:18:21;24.88;;;14.27;;
76935;SDS011;65881;52.438;16.744;2023-04-06T00:20:48;25.20;;;14.63;;
76935;SDS011;65881;52.438;16.744;2023-04-06T00:23:13;29.60;;;15.80;;
76935;SDS011;65881;52.438;16.744;2023-04-06T00:25:40;24.38;;;14.82;;
76935;SDS011;65881;52.438;16.744;2023-04-06T00:28:06;26.25;;;16.23;;
76935;SDS011;65881;52.438;16.744;2023-04-06T00:30:32;28.30;;;16.10;;
76935;SDS011;65881;52.438;16.744;2023-04-06T00:32:58;27.50;;;17.52;;
76935;SDS011;65881;52.438;16.744;2023-04-06T00:35:23;29.40;;;16.50;;
76935;SDS011;65881;52.438;16.744;2023-04-06T00:37:50;32.55;;;16.02;;
76935;SDS011;65881;52.438;16.744;2023-04-06T00:40:16;26.30;;;16.95;;
76935;SDS011;65881;52.438;16.744;2023-04-06T00:42:42;35.40;;;17.52;;
76935;SDS011;65881;52.438;16.744;2023-04-06T00:45:08;30.20;;;16.67;;
76935;SDS011;65881;52.438;16.744;2023-04-06T00:47:34;33.55;;;19.52;;
76935;SDS011;65881;52.438;16.744;2023-04-06T00:50:00;31.25;;;20.20;;
76935;SDS011;65881;52.438;16.744;2023-04-06T00:52:26;33.08;;;21.10;;
76935;SDS011;65881;52.438;16.744;2023-04-06T00:54:52;37.22;;;19.05;;
76935;SDS011;65881;52.438;16.744;2023-04-06T00:57:17;35.67;;;18.65;;
76935;SDS011;65881;52.438;16.744;2023-04-06T00:59:43;34.88;;;19.15;;
76935;SDS011;65881;52.438;16.744;2023-04-06T01:02:10;29.48;;;20.52;;
76935;SDS011;65881;52.438;16.744;2023-04-06T01:04:38;35.72;;;21.10;;
76935;SDS011;65881;52.438;16.744;2023-04-06T01:07:04;33.78;;;20.85;;
76935;SDS011;65881;52.438;16.744;2023-04-06T01:09:33;33.45;;;19.15;;
76935;SDS011;65881;52.438;16.744;2023-04-06T01:11:59;34.85;;;20.85;;
76935;SDS011;65881;52.438;16.744;2023-04-06T01:14:25;37.13;;;19.00;;
76935;SDS011;65881;52.438;16.744;2023-04-06T01:16:51;34.90;;;21.02;;
76935;SDS011;65881;52.438;16.744;2023-04-06T01:19:17;33.80;;;17.77;;
76935;SDS011;65881;52.438;16.744;2023-04-06T01:21:43;27.88;;;18.67;;
76935;SDS011;65881;52.438;16.744;2023-04-06T01:24:09;35.58;;;19.88;;
76935;SDS011;65881;52.438;16.744;2023-04-06T01:26:38;31.40;;;18.65;;
76935;SDS011;65881;52.438;16.744;2023-04-06T01:29:04;32.17;;;19.17;;
76935;SDS011;65881;52.438;16.744;2023-04-06T01:31:30;34.22;;;18.67;;
76935;SDS011;65881;52.438;16.744;2023-04-06T01:36:25;38.28;;;19.98;;
76935;SDS011;65881;52.438;16.744;2023-04-06T01:38:51;36.80;;;21.42;;
76935;SDS011;65881;52.438;16.744;2023-04-06T01:41:17;39.83;;;20.05;;
76935;SDS011;65881;52.438;16.744;2023-04-06T01:43:43;32.55;;;19.27;;
76935;SDS011;65881;52.438;16.744;2023-04-06T01:46:10;31.60;;;19.48;;
76935;SDS011;65881;52.438;16.744;2023-04-06T01:48:36;31.25;;;19.27;;
76935;SDS011;65881;52.438;16.744;2023-04-06T01:51:01;34.13;;;21.95;;
76935;SDS011;65881;52.438;16.744;2023-04-06T01:53:27;34.55;;;18.45;;
76935;SDS011;65881;52.438;16.744;2023-04-06T01:58:22;32.33;;;17.27;;
76935;SDS011;65881;52.438;16.744;2023-04-06T02:00:47;30.48;;;17.50;;
76935;SDS011;65881;52.438;16.744;2023-04-06T02:03:15;31.92;;;17.20;;
76935;SDS011;65881;52.438;16.744;2023-04-06T02:05:41;30.40;;;17.85;;
76935;SDS011;65881;52.438;16.744;2023-04-06T02:08:07;24.10;;;17.30;;
76935;SDS011;65881;52.438;16.744;2023-04-06T02:10:38;31.98;;;18.23;;
76935;SDS011;65881;52.438;16.744;2023-04-06T02:13:03;29.80;;;16.48;;
76935;SDS011;65881;52.438;16.744;2023-04-06T02:15:29;28.55;;;16.80;;
76935;SDS011;65881;52.438;16.744;2023-04-06T02:17:55;26.42;;;15.77;;
76935;SDS011;65881;52.438;16.744;2023-04-06T02:20:22;31.35;;;16.85;;
76935;SDS011;65881;52.438;16.744;2023-04-06T02:22:48;34.10;;;18.75;;
76935;SDS011;65881;52.438;16.744;2023-04-06T02:25:13;32.08;;;18.45;;
76935;SDS011;65881;52.438;16.744;2023-04-06T02:27:39;31.92;;;17.20;;
76935;SDS011;65881;52.438;16.744;2023-04-06T02:30:05;28.55;;;17.05;;
76935;SDS011;65881;52.438;16.744;2023-04-06T02:32:31;24.60;;;16.33;;
76935;SDS011;65881;52.438;16.744;2023-04-06T02:34:57;24.17;;;16.02;;
76935;SDS011;65881;52.438;16.744;2023-04-06T02:37:23;24.70;;;14.88;;
76935;SDS011;65881;52.438;16.744;2023-04-06T02:39:49;27.88;;;17.70;;
76935;SDS011;65881;52.438;16.744;2023-04-06T02:42:15;32.95;;;16.70;;
76935;SDS011;65881;52.438;16.744;2023-04-06T02:44:41;27.60;;;16.77;;
76935;SDS011;65881;52.438;16.744;2023-04-06T02:47:07;33.22;;;18.38;;
76935;SDS011;65881;52.438;16.744;2023-04-06T02:49:33;32.63;;;18.45;;
76935;SDS011;65881;52.438;16.744;2023-04-06T02:51:59;40.60;;;19.70;;
76935;SDS011;65881;52.438;16.744;2023-04-06T02:54:25;33.72;;;20.02;;
76935;SDS011;65881;52.438;16.744;2023-04-06T02:56:51;32.40;;;18.80;;
76935;SDS011;65881;52.438;16.744;2023-04-06T02:59:17;30.48;;;17.77;;
76935;SDS011;65881;52.438;16.744;2023-04-06T03:01:42;33.88;;;19.10;;
76935;SDS011;65881;52.438;16.744;2023-04-06T03:04:08;28.08;;;17.17;;
76935;SDS011;65881;52.438;16.744;2023-04-06T03:06:34;36.05;;;19.77;;
76935;SDS011;65881;52.438;16.744;2023-04-06T03:09:00;29.02;;;17.88;;
76935;SDS011;65881;52.438;16.744;2023-04-06T03:11:25;32.42;;;18.33;;
76935;SDS011;65881;52.438;16.744;2023-04-06T03:13:54;35.85;;;19.13;;
76935;SDS011;65881;52.438;16.744;2023-04-06T03:16:20;39.10;;;21.00;;
76935;SDS011;65881;52.438;16.744;2023-04-06T03:18:45;34.97;;;19.55;;
76935;SDS011;65881;52.438;16.744;2023-04-06T03:23:41;37.03;;;19.60;;
76935;SDS011;65881;52.438;16.744;2023-04-06T03:26:07;38.42;;;19.70;;
76935;SDS011;65881;52.438;16.744;2023-04-06T03:28:33;37.05;;;21.35;;
76935;SDS011;65881;52.438;16.744;2023-04-06T03:30:58;32.88;;;20.63;;
76935;SDS011;65881;52.438;16.744;2023-04-06T03:33:25;39.70;;;20.70;;
76935;SDS011;65881;52.438;16.744;2023-04-06T03:35:54;29.38;;;18.73;;
76935;SDS011;65881;52.438;16.744;2023-04-06T03:38:19;34.88;;;19.98;;
76935;SDS011;65881;52.438;16.744;2023-04-06T03:40:46;34.53;;;20.45;;
76935;SDS011;65881;52.438;16.744;2023-04-06T03:43:12;30.50;;;18.77;;
76935;SDS011;65881;52.438;16.744;2023-04-06T03:45:40;31.27;;;20.17;;
76935;SDS011;65881;52.438;16.744;2023-04-06T03:48:06;29.70;;;19.90;;
76935;SDS011;65881;52.438;16.744;2023-04-06T03:50:32;33.58;;;19.65;;
76935;SDS011;65881;52.438;16.744;2023-04-06T03:53:03;40.58;;;20.80;;
76935;SDS011;65881;52.438;16.744;2023-04-06T03:55:28;34.58;;;20.17;;
76935;SDS011;65881;52.438;16.744;2023-04-06T03:57:54;32.63;;;19.25;;
76935;SDS011;65881;52.438;16.744;2023-04-06T04:00:20;33.22;;;19.23;;
76935;SDS011;65881;52.438;16.744;2023-04-06T04:02:46;42.95;;;22.58;;
76935;SDS011;65881;52.438;16.744;2023-04-06T04:05:12;34.35;;;21.27;;
76935;SDS011;65881;52.438;16.744;2023-04-06T04:07:37;34.10;;;18.58;;
76935;SDS011;65881;52.438;16.744;2023-04-06T04:10:03;35.15;;;19.48;;
76935;SDS011;65881;52.438;16.744;2023-04-06T04:12:29;34.17;;;18.52;;
76935;SDS011;65881;52.438;16.744;2023-04-06T04:14:54;31.75;;;19.30;;
76935;SDS011;65881;52.438;16.744;2023-04-06T04:17:21;33.03;;;20.60;;
76935;SDS011;65881;52.438;16.744;2023-04-06T04:19:47;32.92;;;20.85;;
76935;SDS011;65881;52.438;16.744;2023-04-06T04:22:12;32.92;;;20.63;;
76935;SDS011;65881;52.438;16.744;2023-04-06T04:24:38;32.22;;;20.30;;
76935;SDS011;65881;52.438;16.744;2023-04-06T04:27:04;39.50;;;19.27;;
76935;SDS011;65881;52.438;16.744;2023-04-06T04:29:30;32.25;;;19.67;;
76935;SDS011;65881;52.438;16.744;2023-04-06T04:31:56;28.42;;;17.67;;
76935;SDS011;65881;52.438;16.744;2023-04-06T04:34:21;27.25;;;19.35;;
76935;SDS011;65881;52.438;16.744;2023-04-06T04:36:51;37.85;;;19.85;;
76935;SDS011;65881;52.438;16.744;2023-04-06T04:39:17;33.75;;;20.67;;
76935;SDS011;65881;52.438;16.744;2023-04-06T04:41:43;34.08;;;20.15;;
76935;SDS011;65881;52.438;16.744;2023-04-06T04:44:08;29.27;;;20.98;;
76935;SDS011;65881;52.438;16.744;2023-04-06T04:46:34;31.55;;;19.88;;
76935;SDS011;65881;52.438;16.744;2023-04-06T04:49:00;33.28;;;19.20;;
76935;SDS011;65881;52.438;16.744;2023-04-06T04:51:26;35.70;;;22.20;;
76935;SDS011;65881;52.438;16.744;2023-04-06T04:53:51;40.80;;;21.02;;
76935;SDS011;65881;52.438;16.744;2023-04-06T04:56:17;35.72;;;20.17;;
76935;SDS011;65881;52.438;16.744;2023-04-06T04:58:50;28.15;;;18.02;;
76935;SDS011;65881;52.438;16.744;2023-04-06T05:01:15;34.33;;;18.98;;
76935;SDS011;65881;52.438;16.744;2023-04-06T05:03:41;36.28;;;20.00;;
76935;SDS011;65881;52.438;16.744;2023-04-06T05:06:07;37.55;;;21.88;;
76935;SDS011;65881;52.438;16.744;2023-04-06T05:08:33;32.30;;;20.33;;
76935;SDS011;65881;52.438;16.744;2023-04-06T05:11:20;34.50;;;20.38;;
76935;SDS011;65881;52.438;16.744;2023-04-06T05:13:46;33.70;;;20.45;;
76935;SDS011;65881;52.438;16.744;2023-04-06T05:16:11;39.83;;;24.67;;
76935;SDS011;65881;52.438;16.744;2023-04-06T05:18:37;41.40;;;25.30;;
76935;SDS011;65881;52.438;16.744;2023-04-06T05:21:03;36.65;;;21.90;;
76935;SDS011;65881;52.438;16.744;2023-04-06T05:23:29;42.58;;;25.27;;
76935;SDS011;65881;52.438;16.744;2023-04-06T05:26:00;48.38;;;26.58;;
76935;SDS011;65881;52.438;16.744;2023-04-06T05:31:14;42.13;;;25.25;;
76935;SDS011;65881;52.438;16.744;2023-04-06T05:33:59;42.28;;;26.80;;
76935;SDS011;65881;52.438;16.744;2023-04-06T05:36:35;46.53;;;26.88;;
76935;SDS011;65881;52.438;16.744;2023-04-06T05:39:07;48.03;;;25.70;;
76935;SDS011;65881;52.438;16.744;2023-04-06T05:41:33;47.03;;;25.17;;
76935;SDS011;65881;52.438;16.744;2023-04-06T05:43:59;52.45;;;28.10;;
76935;SDS011;65881;52.438;16.744;2023-04-06T05:46:25;46.55;;;26.73;;
76935;SDS011;65881;52.438;16.744;2023-04-06T05:48:50;53.78;;;30.23;;
76935;SDS011;65881;52.438;16.744;2023-04-06T05:51:16;56.42;;;27.45;;
76935;SDS011;65881;52.438;16.744;2023-04-06T05:53:52;47.60;;;27.17;;
76935;SDS011;65881;52.438;16.744;2023-04-06T05:56:18;44.75;;;25.75;;
76935;SDS011;65881;52.438;16.744;2023-04-06T06:01:29;49.97;;;28.20;;
76935;SDS011;65881;52.438;16.744;2023-04-06T06:04:18;47.15;;;26.55;;
76935;SDS011;65881;52.438;16.744;2023-04-06T06:06:44;46.40;;;27.90;;
76935;SDS011;65881;52.438;16.744;2023-04-06T06:12:03;41.33;;;23.55;;
76935;SDS011;65881;52.438;16.744;2023-04-06T06:14:29;40.15;;;25.58;;
76935;SDS011;65881;52.438;16.744;2023-04-06T06:16:55;43.70;;;23.13;;
76935;SDS011;65881;52.438;16.744;2023-04-06T06:19:20;50.38;;;23.70;;
76935;SDS011;65881;52.438;16.744;2023-04-06T06:21:46;42.70;;;22.33;;
76935;SDS011;65881;52.438;16.744;2023-04-06T06:24:22;37.13;;;23.60;;
76935;SDS011;65881;52.438;16.744;2023-04-06T06:26:48;36.22;;;21.33;;
76935;SDS011;65881;52.438;16.744;2023-04-06T06:29:14;34.20;;;20.40;;
76935;SDS011;65881;52.438;16.744;2023-04-06T06:31:40;39.35;;;21.40;;
76935;SDS011;65881;52.438;16.744;2023-04-06T06:34:06;37.85;;;22.33;;
76935;SDS011;65881;52.438;16.744;2023-04-06T06:36:32;37.40;;;22.15;;
76935;SDS011;65881;52.438;16.744;2023-04-06T06:38:58;37.08;;;21.48;;
76935;SDS011;65881;52.438;16.744;2023-04-06T06:43:54;39.63;;;22.25;;
76935;SDS011;65881;52.438;16.744;2023-04-06T06:46:20;32.20;;;20.30;;
76935;SDS011;65881;52.438;16.744;2023-04-06T06:48:46;35.15;;;19.33;;
76935;SDS011;65881;52.438;16.744;2023-04-06T06:51:11;32.35;;;21.33;;
76935;SDS011;65881;52.438;16.744;2023-04-06T06:53:37;28.73;;;19.13;;
76935;SDS011;65881;52.438;16.744;2023-04-06T06:56:03;34.83;;;20.10;;
76935;SDS011;65881;52.438;16.744;2023-04-06T06:58:29;41.58;;;21.48;;
76935;SDS011;65881;52.438;16.744;2023-04-06T07:00:58;37.35;;;22.40;;
76935;SDS011;65881;52.438;16.744;2023-04-06T07:03:24;29.70;;;19.95;;
76935;SDS011;65881;52.438;16.744;2023-04-06T07:08:38;31.33;;;18.92;;
76935;SDS011;65881;52.438;16.744;2023-04-06T07:11:09;30.13;;;18.42;;
76935;SDS011;65881;52.438;16.744;2023-04-06T07:13:35;31.92;;;17.08;;
76935;SDS011;65881;52.438;16.744;2023-04-06T07:16:07;32.47;;;17.50;;
76935;SDS011;65881;52.438;16.744;2023-04-06T07:18:33;25.85;;;17.13;;
76935;SDS011;65881;52.438;16.744;2023-04-06T07:20:59;28.17;;;17.67;;
76935;SDS011;65881;52.438;16.744;2023-04-06T07:23:24;25.33;;;16.58;;
76935;SDS011;65881;52.438;16.744;2023-04-06T07:25:50;27.60;;;17.67;;
76935;SDS011;65881;52.438;16.744;2023-04-06T07:28:20;24.95;;;14.52;;
76935;SDS011;65881;52.438;16.744;2023-04-06T07:30:50;23.08;;;14.95;;
76935;SDS011;65881;52.438;16.744;2023-04-06T07:33:16;24.73;;;16.17;;
76935;SDS011;65881;52.438;16.744;2023-04-06T07:35:41;31.27;;;17.13;;
76935;SDS011;65881;52.438;16.744;2023-04-06T07:38:07;25.13;;;15.73;;
76935;SDS011;65881;52.438;16.744;2023-04-06T07:40:39;21.50;;;16.08;;
76935;SDS011;65881;52.438;16.744;2023-04-06T07:43:05;24.95;;;14.32;;
76935;SDS011;65881;52.438;16.744;2023-04-06T07:45:30;19.60;;;14.45;;
76935;SDS011;65881;52.438;16.744;2023-04-06T07:47:56;19.38;;;14.90;;
76935;SDS011;65881;52.438;16.744;2023-04-06T07:50:23;26.08;;;15.00;;
76935;SDS011;65881;52.438;16.744;2023-04-06T07:55:43;19.20;;;13.05;;
76935;SDS011;65881;52.438;16.744;2023-04-06T07:58:09;16.95;;;11.25;;
76935;SDS011;65881;52.438;16.744;2023-04-06T08:00:38;19.20;;;11.70;;
76935;SDS011;65881;52.438;16.744;2023-04-06T08:03:10;16.55;;;13.20;;
76935;SDS011;65881;52.438;16.744;2023-04-06T08:05:36;20.30;;;14.45;;
76935;SDS011;65881;52.438;16.744;2023-04-06T08:08:04;26.65;;;14.05;;
76935;SDS011;65881;52.438;16.744;2023-04-06T08:10:30;26.13;;;14.38;;
76935;SDS011;65881;52.438;16.744;2023-04-06T08:12:56;23.85;;;14.15;;
76935;SDS011;65881;52.438;16.744;2023-04-06T08:15:22;18.58;;;12.73;;
76935;SDS011;65881;52.438;16.744;2023-04-06T08:18:06;24.70;;;13.93;;
76935;SDS011;65881;52.438;16.744;2023-04-06T08:23:50;17.55;;;12.98;;
76935;SDS011;65881;52.438;16.744;2023-04-06T08:26:17;16.05;;;11.65;;
76935;SDS011;65881;52.438;16.744;2023-04-06T08:31:26;18.00;;;12.57;;
76935;SDS011;65881;52.438;16.744;2023-04-06T08:33:52;16.23;;;10.68;;
76935;SDS011;65881;52.438;16.744;2023-04-06T08:36:21;14.27;;;10.75;;
76935;SDS011;65881;52.438;16.744;2023-04-06T08:39:00;13.73;;;11.10;;
76935;SDS011;65881;52.438;16.744;2023-04-06T08:41:26;19.35;;;11.45;;
76935;SDS011;65881;52.438;16.744;2023-04-06T08:46:32;24.23;;;12.57;;
76935;SDS011;65881;52.438;16.744;2023-04-06T08:49:02;14.77;;;10.70;;
76935;SDS011;65881;52.438;16.744;2023-04-06T08:51:39;15.50;;;10.40;;
76935;SDS011;65881;52.438;16.744;2023-04-06T08:57:30;16.25;;;10.57;;
76935;SDS011;65881;52.438;16.744;2023-04-06T09:00:22;18.70;;;11.80;;
76935;SDS011;65881;52.438;16.744;2023-04-06T09:06:25;12.93;;;8.20;;
76935;SDS011;65881;52.438;16.744;2023-04-06T09:10:00;13.95;;;10.13;;
76935;SDS011;65881;52.438;16.744;2023-04-06T09:13:02;11.15;;;9.02;;
76935;SDS011;65881;52.438;16.744;2023-04-06T09:15:38;12.20;;;9.18;;
76935;SDS011;65881;52.438;16.744;2023-04-06T09:18:27;12.20;;;8.60;;
76935;SDS011;65881;52.438;16.744;2023-04-06T09:21:00;10.82;;;8.13;;
76935;SDS011;65881;52.438;16.744;2023-04-06T09:23:33;12.15;;;9.07;;
76935;SDS011;65881;52.438;16.744;2023-04-06T09:26:10;19.65;;;9.38;;
76935;SDS011;65881;52.438;16.744;2023-04-06T09:28:55;17.15;;;10.50;;
76935;SDS011;65881;52.438;16.744;2023-04-06T09:31:40;13.07;;;9.82;;
76935;SDS011;65881;52.438;16.744;2023-04-06T09:34:53;12.02;;;9.55;;
76935;SDS011;65881;52.438;16.744;2023-04-06T09:37:18;10.90;;;9.48;;
76935;SDS011;65881;52.438;16.744;2023-04-06T09:39:44;16.80;;;10.30;;
76935;SDS011;65881;52.438;16.744;2023-04-06T09:42:26;11.55;;;9.68;;
76935;SDS011;65881;52.438;16.744;2023-04-06T09:44:52;16.65;;;9.40;;
76935;SDS011;65881;52.438;16.744;2023-04-06T09:47:17;12.55;;;8.23;;
76935;SDS011;65881;52.438;16.744;2023-04-06T09:49:45;12.00;;;8.65;;
76935;SDS011;65881;52.438;16.744;2023-04-06T09:52:19;10.18;;;8.27;;
76935;SDS011;65881;52.438;16.744;2023-04-06T09:54:55;13.90;;;8.40;;
76935;SDS011;65881;52.438;16.744;2023-04-06T09:57:32;11.32;;;8.35;;
76935;SDS011;65881;52.438;16.744;2023-04-06T10:00:19;14.57;;;8.65;;
76935;SDS011;65881;52.438;16.744;2023-04-06T10:05:57;10.07;;;8.23;;
76935;SDS011;65881;52.438;16.744;2023-04-06T10:08:49;10.60;;;8.55;;
76935;SDS011;65881;52.438;16.744;2023-04-06T10:11:16;11.27;;;7.72;;
76935;SDS011;65881;52.438;16.744;2023-04-06T10:13:55;11.77;;;6.72;;
76935;SDS011;65881;52.438;16.744;2023-04-06T10:16:30;9.68;;;6.30;;
76935;SDS011;65881;52.438;16.744;2023-04-06T10:19:02;9.45;;;7.05;;
76935;SDS011;65881;52.438;16.744;2023-04-06T10:21:50;12.02;;;7.88;;
76935;SDS011;65881;52.438;16.744;2023-04-06T10:24:19;17.20;;;7.45;;
76935;SDS011;65881;52.438;16.744;2023-04-06T10:29:54;15.13;;;6.95;;
76935;SDS011;65881;52.438;16.744;2023-04-06T10:35:13;8.05;;;6.75;;
76935;SDS011;65881;52.438;16.744;2023-04-06T10:38:01;11.68;;;6.68;;
76935;SDS011;65881;52.438;16.744;2023-04-06T10:40:32;7.22;;;6.18;;
76935;SDS011;65881;52.438;16.744;2023-04-06T10:43:19;7.47;;;5.93;;
76935;SDS011;65881;52.438;16.744;2023-04-06T10:45:56;10.38;;;7.03;;
76935;SDS011;65881;52.438;16.744;2023-04-06T10:51:17;10.73;;;8.52;;
76935;SDS011;65881;52.438;16.744;2023-04-06T10:53:44;8.75;;;6.78;;
76935;SDS011;65881;52.438;16.744;2023-04-06T10:56:26;11.80;;;6.93;;
76935;SDS011;65881;52.438;16.744;2023-04-06T10:58:54;8.23;;;6.47;;
76935;SDS011;65881;52.438;16.744;2023-04-06T11:01:24;7.03;;;6.20;;
76935;SDS011;65881;52.438;16.744;2023-04-06T11:04:01;8.70;;;5.78;;
76935;SDS011;65881;52.438;16.744;2023-04-06T11:06:29;9.43;;;6.63;;
76935;SDS011;65881;52.438;16.744;2023-04-06T11:08:59;12.18;;;5.95;;
76935;SDS011;65881;52.438;16.744;2023-04-06T11:14:18;9.82;;;7.72;;
76935;SDS011;65881;52.438;16.744;2023-04-06T11:16:45;11.77;;;7.25;;
76935;SDS011;65881;52.438;16.744;2023-04-06T11:19:17;9.85;;;7.63;;
76935;SDS011;65881;52.438;16.744;2023-04-06T11:21:46;7.93;;;7.13;;
76935;SDS011;65881;52.438;16.744;2023-04-06T11:24:16;9.80;;;7.00;;
76935;SDS011;65881;52.438;16.744;2023-04-06T11:29:34;10.43;;;7.25;;
76935;SDS011;65881;52.438;16.744;2023-04-06T11:32:05;10.93;;;7.25;;
76935;SDS011;65881;52.438;16.744;2023-04-06T11:34:38;6.97;;;6.28;;
76935;SDS011;65881;52.438;16.744;2023-04-06T11:37:12;8.20;;;6.35;;
76935;SDS011;65881;52.438;16.744;2023-04-06T11:39:48;7.72;;;6.50;;
76935;SDS011;65881;52.438;16.744;2023-04-06T11:42:25;39.20;;;11.57;;
76935;SDS011;65881;52.438;16.744;2023-04-06T11:45:01;26.77;;;8.43;;
76935;SDS011;65881;52.438;16.744;2023-04-06T11:47:32;14.80;;;8.35;;
76935;SDS011;65881;52.438;16.744;2023-04-06T11:52:47;11.68;;;7.38;;
76935;SDS011;65881;52.438;16.744;2023-04-06T11:55:36;11.13;;;7.57;;
76935;SDS011;65881;52.438;16.744;2023-04-06T12:00:47;22.42;;;9.80;;
76935;SDS011;65881;52.438;16.744;2023-04-06T12:03:18;9.93;;;8.65;;
76935;SDS011;65881;52.438;16.744;2023-04-06T12:06:02;9.38;;;7.68;;
76935;SDS011;65881;52.438;16.744;2023-04-06T12:08:40;12.27;;;8.27;;
76935;SDS011;65881;52.438;16.744;2023-04-06T12:11:06;10.88;;;7.10;;
76935;SDS011;65881;52.438;16.744;2023-04-06T12:13:38;11.63;;;8.57;;
76935;SDS011;65881;52.438;16.744;2023-04-06T12:16:06;11.98;;;7.97;;
76935;SDS011;65881;52.438;16.744;2023-04-06T12:18:32;11.23;;;7.47;;
76935;SDS011;65881;52.438;16.744;2023-04-06T12:20:59;12.55;;;8.40;;
76935;SDS011;65881;52.438;16.744;2023-04-06T12:23:28;11.45;;;6.93;;
76935;SDS011;65881;52.438;16.744;2023-04-06T12:26:00;8.88;;;6.88;;
76935;SDS011;65881;52.438;16.744;2023-04-06T12:28:28;8.57;;;6.35;;
76935;SDS011;65881;52.438;16.744;2023-04-06T12:30:54;10.52;;;7.28;;
76935;SDS011;65881;52.438;16.744;2023-04-06T12:33:23;14.00;;;7.55;;
76935;SDS011;65881;52.438;16.744;2023-04-06T12:35:50;11.40;;;8.38;;
76935;SDS011;65881;52.438;16.744;2023-04-06T12:38:54;11.27;;;8.85;;
76935;SDS011;65881;52.438;16.744;2023-04-06T12:41:21;9.77;;;7.50;;
76935;SDS011;65881;52.438;16.744;2023-04-06T12:43:46;9.00;;;7.68;;
76935;SDS011;65881;52.438;16.744;2023-04-06T12:49:00;11.55;;;8.50;;
76935;SDS011;65881;52.438;16.744;2023-04-06T12:51:29;11.30;;;9.10;;
76935;SDS011;65881;52.438;16.744;2023-04-06T12:54:02;10.73;;;8.35;;
76935;SDS011;65881;52.438;16.744;2023-04-06T12:56:28;9.57;;;8.57;;
76935;SDS011;65881;52.438;16.744;2023-04-06T12:58:59;12.68;;;9.75;;
76935;SDS011;65881;52.438;16.744;2023-04-06T13:04:26;14.55;;;9.40;;
76935;SDS011;65881;52.438;16.744;2023-04-06T13:06:51;12.15;;;8.77;;
76935;SDS011;65881;52.438;16.744;2023-04-06T13:09:17;9.68;;;8.68;;
76935;SDS011;65881;52.438;16.744;2023-04-06T13:11:43;13.93;;;9.30;;
76935;SDS011;65881;52.438;16.744;2023-04-06T13:14:08;12.70;;;9.82;;
76935;SDS011;65881;52.438;16.744;2023-04-06T13:19:04;10.70;;;8.43;;
76935;SDS011;65881;52.438;16.744;2023-04-06T13:21:36;11.80;;;8.68;;
76935;SDS011;65881;52.438;16.744;2023-04-06T13:24:05;12.48;;;9.15;;
76935;SDS011;65881;52.438;16.744;2023-04-06T13:26:31;11.50;;;8.55;;
76935;SDS011;65881;52.438;16.744;2023-04-06T13:29:09;9.60;;;8.02;;
76935;SDS011;65881;52.438;16.744;2023-04-06T13:31:34;12.70;;;7.85;;
76935;SDS011;65881;52.438;16.744;2023-04-06T13:34:01;9.20;;;7.93;;
76935;SDS011;65881;52.438;16.744;2023-04-06T13:36:27;9.88;;;7.85;;
76935;SDS011;65881;52.438;16.744;2023-04-06T13:38:55;10.93;;;7.15;;
76935;SDS011;65881;52.438;16.744;2023-04-06T13:41:21;10.43;;;8.50;;
76935;SDS011;65881;52.438;16.744;2023-04-06T13:43:51;10.73;;;8.27;;
76935;SDS011;65881;52.438;16.744;2023-04-06T13:46:17;11.05;;;8.00;;
76935;SDS011;65881;52.438;16.744;2023-04-06T13:48:43;9.43;;;8.48;;
76935;SDS011;65881;52.438;16.744;2023-04-06T13:53:38;9.27;;;7.10;;
76935;SDS011;65881;52.438;16.744;2023-04-06T13:56:04;9.50;;;7.63;;
76935;SDS011;65881;52.438;16.744;2023-04-06T13:58:30;13.63;;;8.63;;
76935;SDS011;65881;52.438;16.744;2023-04-06T14:01:03;8.75;;;7.05;;
76935;SDS011;65881;52.438;16.744;2023-04-06T14:03:34;9.73;;;6.90;;
76935;SDS011;65881;52.438;16.744;2023-04-06T14:06:00;11.50;;;7.63;;
76935;SDS011;65881;52.438;16.744;2023-04-06T14:08:34;12.23;;;8.43;;
76935;SDS011;65881;52.438;16.744;2023-04-06T14:10:59;12.15;;;9.18;;
76935;SDS011;65881;52.438;16.744;2023-04-06T14:13:27;11.27;;;8.23;;
76935;SDS011;65881;52.438;16.744;2023-04-06T14:15:53;9.05;;;8.15;;
76935;SDS011;65881;52.438;16.744;2023-04-06T14:18:20;11.98;;;8.38;;
76935;SDS011;65881;52.438;16.744;2023-04-06T14:20:54;12.25;;;7.00;;
76935;SDS011;65881;52.438;16.744;2023-04-06T14:23:23;8.95;;;8.05;;
76935;SDS011;65881;52.438;16.744;2023-04-06T14:25:51;13.27;;;9.07;;
76935;SDS011;65881;52.438;16.744;2023-04-06T14:28:41;9.30;;;7.95;;
76935;SDS011;65881;52.438;16.744;2023-04-06T14:31:11;8.30;;;7.18;;
76935;SDS011;65881;52.438;16.744;2023-04-06T14:33:38;11.45;;;8.50;;
76935;SDS011;65881;52.438;16.744;2023-04-06T14:36:05;11.27;;;8.48;;
76935;SDS011;65881;52.438;16.744;2023-04-06T14:38:31;10.90;;;8.77;;
76935;SDS011;65881;52.438;16.744;2023-04-06T14:40:57;11.68;;;8.32;;
76935;SDS011;65881;52.438;16.744;2023-04-06T14:43:23;10.90;;;7.95;;
76935;SDS011;65881;52.438;16.744;2023-04-06T14:45:50;9.60;;;7.40;;
76935;SDS011;65881;52.438;16.744;2023-04-06T14:48:16;10.52;;;7.00;;
76935;SDS011;65881;52.438;16.744;2023-04-06T14:50:52;9.30;;;7.90;;
76935;SDS011;65881;52.438;16.744;2023-04-06T14:55:46;7.47;;;6.53;;
76935;SDS011;65881;52.438;16.744;2023-04-06T14:58:12;7.82;;;6.28;;
76935;SDS011;65881;52.438;16.744;2023-04-06T15:00:38;10.63;;;7.35;;
76935;SDS011;65881;52.438;16.744;2023-04-06T15:03:04;14.00;;;8.00;;
76935;SDS011;65881;52.438;16.744;2023-04-06T15:05:38;11.18;;;7.35;;
76935;SDS011;65881;52.438;16.744;2023-04-06T15:08:13;11.07;;;7.20;;
76935;SDS011;65881;52.438;16.744;2023-04-06T15:10:40;13.32;;;7.32;;
76935;SDS011;65881;52.438;16.744;2023-04-06T15:13:05;8.48;;;6.28;;
76935;SDS011;65881;52.438;16.744;2023-04-06T15:15:31;10.57;;;7.63;;
76935;SDS011;65881;52.438;16.744;2023-04-06T15:18:00;11.35;;;8.18;;
76935;SDS011;65881;52.438;16.744;2023-04-06T15:20:27;14.43;;;7.22;;
76935;SDS011;65881;52.438;16.744;2023-04-06T15:22:53;10.30;;;7.32;;
76935;SDS011;65881;52.438;16.744;2023-04-06T15:25:18;10.23;;;7.35;;
76935;SDS011;65881;52.438;16.744;2023-04-06T15:27:44;10.93;;;7.95;;
76935;SDS011;65881;52.438;16.744;2023-04-06T15:30:22;9.30;;;7.78;;
76935;SDS011;65881;52.438;16.744;2023-04-06T15:32:55;10.25;;;7.03;;
76935;SDS011;65881;52.438;16.744;2023-04-06T15:35:22;11.70;;;7.63;;
76935;SDS011;65881;52.438;16.744;2023-04-06T15:37:48;12.48;;;7.45;;
76935;SDS011;65881;52.438;16.744;2023-04-06T15:40:14;11.50;;;8.27;;
76935;SDS011;65881;52.438;16.744;2023-04-06T15:42:42;9.68;;;7.32;;